Time,TemperatureF,DewpointF,PressureIn,WindDirection,WindDirectionDegrees,WindSpeedMPH,WindSpeedGustMPH,Humidity,HourlyPrecipIn,Conditions,Clouds,dailyrainin,SoftwareType,DateUTC
2013-01-23 09:04:00,47.4,11.5,30.18,North,10,0.0,0.0,23,0.00,,,0.00,vanprod-2.3,2013-01-23 16:04:00,
2013-01-23 09:28:00,49.8,12.5,30.15,North,10,0.0,0.0,22,0.00,,,0.00,vanprod-2.3,2013-01-23 16:28:00,
2013-01-23 09:40:00,50.8,16.3,30.16,North,10,0.0,0.0,25,0.00,,,0.00,vanprod-2.3,2013-01-23 16:40:00,
2013-01-23 09:50:00,49.8,11.5,30.16,North,10,0.0,0.0,21,0.00,,,0.00,vanprod-2.3,2013-01-23 16:50:00,
2013-01-23 09:58:00,50.2,13.8,30.16,North,10,0.0,0.0,23,0.00,,,0.00,vanprod-2.3,2013-01-23 16:58:00,
2013-01-23 10:02:00,50.5,13.1,30.15,North,10,0.0,0.0,22,0.00,,,0.00,vanprod-2.3,2013-01-23 17:02:00,
2013-01-23 10:08:00,51.4,12.8,30.15,North,10,0.0,0.0,21,0.00,,,0.00,vanprod-2.3,2013-01-23 17:08:00,
2013-01-23 10:14:00,52.3,13.5,30.14,North,10,0.0,0.0,21,0.00,,,0.00,vanprod-2.3,2013-01-23 17:14:00,
2013-01-23 10:20:00,52.8,14.0,30.13,North,10,0.0,0.0,21,0.00,,,0.00,vanprod-2.3,2013-01-23 17:20:00,
2013-01-23 10:26:00,53.1,15.3,30.13,North,10,0.0,0.0,22,0.00,,,0.00,vanprod-2.3,2013-01-23 17:26:00,
2013-01-23 10:32:00,53.2,14.3,30.14,North,10,0.0,1.0,21,0.00,,,0.00,vanprod-2.3,2013-01-23 17:32:00,
2013-01-23 10:38:00,53.2,14.3,30.14,North,10,0.0,1.0,21,0.00,,,0.00,vanprod-2.3,2013-01-23 17:38:00,
2013-01-23 10:44:00,53.2,14.3,30.14,North,10,0.0,0.0,21,0.00,,,0.00,vanprod-2.3,2013-01-23 17:44:00,
2013-01-23 10:50:00,53.3,15.4,30.14,North,10,0.0,1.0,22,0.00,,,0.00,vanprod-2.3,2013-01-23 17:50:00,
2013-01-23 10:56:00,53.5,16.6,30.12,North,10,0.0,1.0,23,0.00,,,0.00,vanprod-2.3,2013-01-23 17:56:00,
2013-01-23 11:02:00,53.8,17.9,30.12,North,8,0.0,0.0,24,0.00,,,0.00,vanprod-2.3,2013-01-23 18:02:00,
2013-01-23 11:08:00,53.6,15.7,30.12,North,9,0.0,0.0,22,0.00,,,0.00,vanprod-2.3,2013-01-23 18:08:00,
2013-01-23 11:14:00,53.6,16.7,30.12,North,8,0.0,0.0,23,0.00,,,0.00,vanprod-2.3,2013-01-23 18:14:00,
2013-01-23 11:20:00,53.6,16.7,30.12,North,8,0.0,0.0,23,0.00,,,0.00,vanprod-2.3,2013-01-23 18:20:00,
2013-01-23 11:26:00,56.3,15.8,30.09,North,10,2.0,5.0,20,0.00,,,0.00,vanprod-2.3,2013-01-23 18:26:00,
2013-01-23 11:32:00,57.8,14.6,30.07,North,10,1.0,2.0,18,0.00,,,0.00,vanprod-2.3,2013-01-23 18:32:00,
2013-01-23 11:38:00,59.2,14.4,30.05,North,10,0.0,6.0,17,0.00,,,0.00,vanprod-2.3,2013-01-23 18:38:00,
2013-01-23 11:43:00,59.2,14.4,30.05,North,10,11.0,14.0,17,0.00,,,0.00,vanprod-2.3,2013-01-23 18:43:00,
2013-01-23 11:50:00,59.6,13.4,30.04,North,10,6.0,14.0,16,0.00,,,0.00,vanprod-2.3,2013-01-23 18:50:00,
2013-01-23 11:56:00,59.8,13.5,30.04,North,10,4.0,13.0,16,0.00,,,0.00,vanprod-2.3,2013-01-23 18:56:00,
2013-01-23 12:02:00,59.9,17.6,30.03,North,8,3.0,3.0,19,0.00,,,0.00,vanprod-2.3,2013-01-23 19:02:00,
2013-01-23 12:08:00,60.2,16.6,30.03,North,10,0.0,3.0,18,0.00,,,0.00,vanprod-2.3,2013-01-23 19:08:00,
2013-01-23 12:14:00,60.2,15.2,30.03,North,10,5.0,8.0,17,0.00,,,0.00,vanprod-2.3,2013-01-23 19:14:00,
2013-01-23 12:20:00,60.7,14.3,30.02,North,10,0.0,6.0,16,0.00,,,0.00,vanprod-2.3,2013-01-23 19:20:00,
2013-01-23 12:26:00,61.6,15.0,30.01,North,10,5.0,11.0,16,0.00,,,0.00,vanprod-2.3,2013-01-23 19:26:00,
2013-01-23 12:32:00,62.3,15.6,30.00,North,10,12.0,14.0,16,0.00,,,0.00,vanprod-2.3,2013-01-23 19:32:00,
2013-01-23 12:38:00,62.1,15.4,30.00,North,10,3.0,11.0,16,0.00,,,0.00,vanprod-2.3,2013-01-23 19:38:00,
2013-01-23 12:44:00,61.3,14.8,30.00,North,10,5.0,11.0,16,0.00,,,0.00,vanprod-2.3,2013-01-23 19:44:00,
2013-01-23 12:50:00,60.4,15.4,30.00,North,10,10.0,20.0,17,0.00,,,0.00,vanprod-2.3,2013-01-23 19:50:00,
2013-01-23 12:56:00,61.0,14.5,30.00,North,10,6.0,16.0,16,0.00,,,0.00,vanprod-2.3,2013-01-23 19:56:00,
2013-01-23 13:02:00,62.6,15.8,29.99,North,10,9.0,14.0,16,0.00,,,0.00,vanprod-2.3,2013-01-23 20:02:00,
2013-01-23 13:08:00,62.7,15.9,29.98,North,10,10.0,13.0,16,0.00,,,0.00,vanprod-2.3,2013-01-23 20:08:00,
2013-01-23 13:14:00,62.1,16.8,29.99,North,10,1.0,7.0,17,0.00,,,0.00,vanprod-2.3,2013-01-23 20:14:00,
2013-01-23 13:20:00,62.1,15.4,29.98,North,10,9.0,14.0,16,0.00,,,0.00,vanprod-2.3,2013-01-23 20:20:00,
2013-01-23 13:26:00,62.1,16.8,29.98,North,10,6.0,9.0,17,0.00,,,0.00,vanprod-2.3,2013-01-23 20:26:00,
2013-01-23 13:32:00,61.8,16.6,29.98,North,10,2.0,11.0,17,0.00,,,0.00,vanprod-2.3,2013-01-23 20:32:00,
2013-01-23 13:38:00,61.6,16.4,29.97,North,10,7.0,14.0,17,0.00,,,0.00,vanprod-2.3,2013-01-23 20:38:00,
2013-01-23 13:44:00,62.7,17.3,29.96,North,10,0.0,3.0,17,0.00,,,0.00,vanprod-2.3,2013-01-23 20:44:00,
2013-01-23 13:50:00,63.7,16.7,29.95,North,10,4.0,11.0,16,0.00,,,0.00,vanprod-2.3,2013-01-23 20:50:00,
2013-01-23 13:56:00,62.7,17.3,29.95,North,8,2.0,7.0,17,0.00,,,0.00,vanprod-2.3,2013-01-23 20:56:00,
2013-01-23 14:01:00,62.7,17.3,29.95,North,8,2.0,2.0,17,0.00,,,0.00,vanprod-2.3,2013-01-23 21:01:00,
2013-01-23 14:56:00,60.5,18.1,29.98,North,10,6.0,10.0,19,0.00,,,0.00,vanprod-2.3,2013-01-23 21:56:00,
2013-01-23 15:02:00,61.3,21.1,29.96,North,8,3.0,3.0,21,0.00,,,0.00,vanprod-2.3,2013-01-23 22:02:00,
2013-01-23 15:08:00,61.3,21.1,29.96,North,8,2.0,2.0,21,0.00,,,0.00,vanprod-2.3,2013-01-23 22:08:00,
2013-01-23 15:13:00,61.5,18.9,29.96,North,10,3.0,8.0,19,0.00,,,0.00,vanprod-2.3,2013-01-23 22:13:00,
2013-01-23 15:20:00,62.9,22.4,29.94,North,10,4.0,8.0,21,0.00,,,0.00,vanprod-2.3,2013-01-23 22:20:00,
2013-01-23 15:26:00,62.9,20.0,29.94,North,10,1.0,5.0,19,0.00,,,0.00,vanprod-2.3,2013-01-23 22:26:00,
2013-01-23 15:32:00,62.9,21.2,29.93,North,8,2.0,2.0,20,0.00,,,0.00,vanprod-2.3,2013-01-23 22:32:00,
2013-01-23 15:38:00,62.9,21.2,29.94,North,8,2.0,2.0,20,0.00,,,0.00,vanprod-2.3,2013-01-23 22:38:00,